sensor_id;sensor_type;location;lat;lon;timestamp;P1;durP1;ratioP1;P2;durP2;ratioP2
6412;SDS011;3239;48.714;9.472;2022-08-21T00:00:22;3.80;;;2.80;;
6412;SDS011;3239;48.714;9.472;2022-08-21T00:03:09;5.43;;;2.27;;
6412;SDS011;3239;48.714;9.472;2022-08-21T00:05:37;2.50;;;2.30;;
6412;SDS011;3239;48.714;9.472;2022-08-21T00:08:07;3.00;;;2.40;;
6412;SDS011;3239;48.714;9.472;2022-08-21T00:10:37;5.30;;;2.20;;
6412;SDS011;3239;48.714;9.472;2022-08-21T00:13:05;2.50;;;2.30;;
6412;SDS011;3239;48.714;9.472;2022-08-21T00:15:32;3.77;;;2.20;;
6412;SDS011;3239;48.714;9.472;2022-08-21T00:18:00;2.40;;;2.10;;
6412;SDS011;3239;48.714;9.472;2022-08-21T00:20:28;2.87;;;2.40;;
6412;SDS011;3239;48.714;9.472;2022-08-21T00:22:55;2.30;;;1.93;;
6412;SDS011;3239;48.714;9.472;2022-08-21T00:25:21;7.40;;;2.73;;
6412;SDS011;3239;48.714;9.472;2022-08-21T00:27:47;4.90;;;2.17;;
6412;SDS011;3239;48.714;9.472;2022-08-21T00:30:15;4.80;;;2.20;;
6412;SDS011;3239;48.714;9.472;2022-08-21T00:32:43;2.43;;;2.23;;
6412;SDS011;3239;48.714;9.472;2022-08-21T00:35:13;3.27;;;2.50;;
6412;SDS011;3239;48.714;9.472;2022-08-21T00:37:42;3.40;;;2.80;;
6412;SDS011;3239;48.714;9.472;2022-08-21T00:40:10;2.80;;;2.60;;
6412;SDS011;3239;48.714;9.472;2022-08-21T00:42:39;5.03;;;2.30;;
6412;SDS011;3239;48.714;9.472;2022-08-21T00:45:06;4.30;;;2.80;;
6412;SDS011;3239;48.714;9.472;2022-08-21T00:47:32;4.07;;;2.90;;
6412;SDS011;3239;48.714;9.472;2022-08-21T00:49:58;2.43;;;2.23;;
6412;SDS011;3239;48.714;9.472;2022-08-21T00:52:26;8.10;;;2.83;;
6412;SDS011;3239;48.714;9.472;2022-08-21T00:54:55;2.80;;;2.50;;
6412;SDS011;3239;48.714;9.472;2022-08-21T00:57:26;3.73;;;2.97;;
6412;SDS011;3239;48.714;9.472;2022-08-21T00:59:58;2.80;;;2.60;;
6412;SDS011;3239;48.714;9.472;2022-08-21T01:02:32;3.30;;;2.50;;
6412;SDS011;3239;48.714;9.472;2022-08-21T01:04:58;3.10;;;2.90;;
6412;SDS011;3239;48.714;9.472;2022-08-21T01:07:24;2.93;;;2.47;;
6412;SDS011;3239;48.714;9.472;2022-08-21T01:09:50;3.57;;;2.23;;
6412;SDS011;3239;48.714;9.472;2022-08-21T01:12:16;2.30;;;2.10;;
6412;SDS011;3239;48.714;9.472;2022-08-21T01:14:43;4.90;;;2.60;;
6412;SDS011;3239;48.714;9.472;2022-08-21T01:17:10;2.10;;;1.90;;
6412;SDS011;3239;48.714;9.472;2022-08-21T01:19:38;4.40;;;2.47;;
6412;SDS011;3239;48.714;9.472;2022-08-21T01:22:05;2.00;;;1.80;;
6412;SDS011;3239;48.714;9.472;2022-08-21T01:24:31;6.30;;;2.20;;
6412;SDS011;3239;48.714;9.472;2022-08-21T01:26:57;3.40;;;2.30;;
6412;SDS011;3239;48.714;9.472;2022-08-21T01:32:11;6.40;;;2.60;;
6412;SDS011;3239;48.714;9.472;2022-08-21T01:34:42;3.13;;;2.60;;
6412;SDS011;3239;48.714;9.472;2022-08-21T01:37:11;2.03;;;1.83;;
6412;SDS011;3239;48.714;9.472;2022-08-21T01:39:38;3.20;;;1.90;;
6412;SDS011;3239;48.714;9.472;2022-08-21T01:42:05;1.73;;;1.40;;
6412;SDS011;3239;48.714;9.472;2022-08-21T01:44:31;4.60;;;1.97;;
6412;SDS011;3239;48.714;9.472;2022-08-21T01:46:58;2.00;;;1.80;;
6412;SDS011;3239;48.714;9.472;2022-08-21T01:49:26;6.43;;;1.70;;
6412;SDS011;3239;48.714;9.472;2022-08-21T01:51:52;1.90;;;1.50;;
6412;SDS011;3239;48.714;9.472;2022-08-21T01:54:18;1.53;;;1.43;;
6412;SDS011;3239;48.714;9.472;2022-08-21T01:56:45;2.60;;;2.10;;
6412;SDS011;3239;48.714;9.472;2022-08-21T01:59:15;4.40;;;3.97;;
6412;SDS011;3239;48.714;9.472;2022-08-21T02:01:41;4.80;;;3.30;;
6412;SDS011;3239;48.714;9.472;2022-08-21T02:04:07;3.60;;;3.23;;
6412;SDS011;3239;48.714;9.472;2022-08-21T02:06:35;4.10;;;3.53;;
6412;SDS011;3239;48.714;9.472;2022-08-21T02:09:03;5.93;;;3.13;;
6412;SDS011;3239;48.714;9.472;2022-08-21T02:11:32;5.37;;;3.27;;
6412;SDS011;3239;48.714;9.472;2022-08-21T02:13:59;15.13;;;2.47;;
6412;SDS011;3239;48.714;9.472;2022-08-21T02:16:24;2.50;;;2.30;;
6412;SDS011;3239;48.714;9.472;2022-08-21T02:18:50;5.43;;;2.43;;
6412;SDS011;3239;48.714;9.472;2022-08-21T02:21:16;4.73;;;2.20;;
6412;SDS011;3239;48.714;9.472;2022-08-21T02:23:43;2.67;;;2.23;;
6412;SDS011;3239;48.714;9.472;2022-08-21T02:26:09;3.13;;;2.07;;
6412;SDS011;3239;48.714;9.472;2022-08-21T02:28:35;24.60;;;2.50;;
6412;SDS011;3239;48.714;9.472;2022-08-21T02:31:03;4.63;;;2.00;;
6412;SDS011;3239;48.714;9.472;2022-08-21T02:33:30;2.33;;;2.13;;
6412;SDS011;3239;48.714;9.472;2022-08-21T02:35:56;13.70;;;2.47;;
6412;SDS011;3239;48.714;9.472;2022-08-21T02:38:24;22.07;;;2.50;;
6412;SDS011;3239;48.714;9.472;2022-08-21T02:40:53;2.90;;;1.80;;
6412;SDS011;3239;48.714;9.472;2022-08-21T02:43:21;3.20;;;1.70;;
6412;SDS011;3239;48.714;9.472;2022-08-21T02:45:49;1.53;;;1.20;;
6412;SDS011;3239;48.714;9.472;2022-08-21T02:48:18;1.83;;;1.63;;
6412;SDS011;3239;48.714;9.472;2022-08-21T02:50:52;2.27;;;1.90;;
6412;SDS011;3239;48.714;9.472;2022-08-21T02:53:28;1.67;;;1.47;;
6412;SDS011;3239;48.714;9.472;2022-08-21T02:55:57;2.70;;;1.53;;
6412;SDS011;3239;48.714;9.472;2022-08-21T02:58:26;5.23;;;1.53;;
6412;SDS011;3239;48.714;9.472;2022-08-21T03:00:56;1.50;;;1.27;;
6412;SDS011;3239;48.714;9.472;2022-08-21T03:03:23;1.30;;;1.10;;
6412;SDS011;3239;48.714;9.472;2022-08-21T03:05:51;1.97;;;1.00;;
6412;SDS011;3239;48.714;9.472;2022-08-21T03:08:18;3.83;;;1.70;;
6412;SDS011;3239;48.714;9.472;2022-08-21T03:10:45;2.10;;;1.53;;
6412;SDS011;3239;48.714;9.472;2022-08-21T03:13:14;2.90;;;1.60;;
6412;SDS011;3239;48.714;9.472;2022-08-21T03:15:42;7.10;;;2.20;;
6412;SDS011;3239;48.714;9.472;2022-08-21T03:18:09;3.17;;;1.73;;
6412;SDS011;3239;48.714;9.472;2022-08-21T03:20:36;2.50;;;1.93;;
6412;SDS011;3239;48.714;9.472;2022-08-21T03:23:05;4.10;;;1.90;;
6412;SDS011;3239;48.714;9.472;2022-08-21T03:25:33;4.30;;;1.83;;
6412;SDS011;3239;48.714;9.472;2022-08-21T03:28:00;4.20;;;2.53;;
6412;SDS011;3239;48.714;9.472;2022-08-21T03:30:28;3.77;;;1.80;;
6412;SDS011;3239;48.714;9.472;2022-08-21T03:32:56;7.83;;;2.07;;
6412;SDS011;3239;48.714;9.472;2022-08-21T03:35:26;5.10;;;2.30;;
6412;SDS011;3239;48.714;9.472;2022-08-21T03:37:54;5.73;;;2.33;;
6412;SDS011;3239;48.714;9.472;2022-08-21T03:40:21;1.70;;;1.60;;
6412;SDS011;3239;48.714;9.472;2022-08-21T03:42:49;3.33;;;2.10;;
6412;SDS011;3239;48.714;9.472;2022-08-21T03:45:16;4.27;;;2.03;;
6412;SDS011;3239;48.714;9.472;2022-08-21T03:47:59;7.40;;;1.90;;
6412;SDS011;3239;48.714;9.472;2022-08-21T03:50:29;4.97;;;2.00;;
6412;SDS011;3239;48.714;9.472;2022-08-21T03:52:59;4.63;;;2.00;;
6412;SDS011;3239;48.714;9.472;2022-08-21T03:55:27;1.70;;;1.60;;
6412;SDS011;3239;48.714;9.472;2022-08-21T03:57:53;2.17;;;1.50;;
6412;SDS011;3239;48.714;9.472;2022-08-21T04:00:19;1.90;;;1.53;;
6412;SDS011;3239;48.714;9.472;2022-08-21T04:02:47;2.97;;;1.80;;
6412;SDS011;3239;48.714;9.472;2022-08-21T04:05:14;2.00;;;1.50;;
6412;SDS011;3239;48.714;9.472;2022-08-21T04:07:59;3.60;;;2.27;;
6412;SDS011;3239;48.714;9.472;2022-08-21T04:10:30;1.77;;;1.67;;
6412;SDS011;3239;48.714;9.472;2022-08-21T04:12:59;1.67;;;1.57;;
6412;SDS011;3239;48.714;9.472;2022-08-21T04:15:25;3.57;;;1.87;;
6412;SDS011;3239;48.714;9.472;2022-08-21T04:17:51;3.43;;;2.10;;
6412;SDS011;3239;48.714;9.472;2022-08-21T04:20:18;11.20;;;2.03;;
6412;SDS011;3239;48.714;9.472;2022-08-21T04:22:46;2.70;;;1.97;;
6412;SDS011;3239;48.714;9.472;2022-08-21T04:25:14;3.70;;;2.40;;
6412;SDS011;3239;48.714;9.472;2022-08-21T04:27:40;16.73;;;3.27;;
6412;SDS011;3239;48.714;9.472;2022-08-21T04:30:07;11.93;;;2.60;;
6412;SDS011;3239;48.714;9.472;2022-08-21T04:32:35;6.43;;;3.47;;
6412;SDS011;3239;48.714;9.472;2022-08-21T04:35:05;3.13;;;2.90;;
6412;SDS011;3239;48.714;9.472;2022-08-21T04:37:34;3.40;;;3.10;;
6412;SDS011;3239;48.714;9.472;2022-08-21T04:40:00;3.20;;;2.90;;
6412;SDS011;3239;48.714;9.472;2022-08-21T04:42:28;3.30;;;3.00;;
6412;SDS011;3239;48.714;9.472;2022-08-21T04:44:54;9.20;;;3.10;;
6412;SDS011;3239;48.714;9.472;2022-08-21T04:47:22;3.27;;;2.97;;
6412;SDS011;3239;48.714;9.472;2022-08-21T04:49:49;12.30;;;3.00;;
6412;SDS011;3239;48.714;9.472;2022-08-21T04:52:17;3.10;;;2.70;;
6412;SDS011;3239;48.714;9.472;2022-08-21T04:54:47;10.03;;;1.97;;
6412;SDS011;3239;48.714;9.472;2022-08-21T04:57:16;1.57;;;1.37;;
6412;SDS011;3239;48.714;9.472;2022-08-21T04:59:47;2.30;;;2.00;;
6412;SDS011;3239;48.714;9.472;2022-08-21T05:02:15;2.03;;;1.60;;
6412;SDS011;3239;48.714;9.472;2022-08-21T05:04:47;2.10;;;1.53;;
6412;SDS011;3239;48.714;9.472;2022-08-21T05:07:22;3.37;;;1.27;;
6412;SDS011;3239;48.714;9.472;2022-08-21T05:09:51;1.90;;;1.70;;
6412;SDS011;3239;48.714;9.472;2022-08-21T05:12:18;1.77;;;1.60;;
6412;SDS011;3239;48.714;9.472;2022-08-21T05:14:44;2.43;;;1.17;;
6412;SDS011;3239;48.714;9.472;2022-08-21T05:17:10;1.40;;;1.30;;
6412;SDS011;3239;48.714;9.472;2022-08-21T05:19:36;1.50;;;1.10;;
6412;SDS011;3239;48.714;9.472;2022-08-21T05:22:01;2.33;;;1.20;;
6412;SDS011;3239;48.714;9.472;2022-08-21T05:24:28;1.53;;;1.37;;
6412;SDS011;3239;48.714;9.472;2022-08-21T05:26:54;1.43;;;1.33;;
6412;SDS011;3239;48.714;9.472;2022-08-21T05:29:20;1.57;;;1.10;;
6412;SDS011;3239;48.714;9.472;2022-08-21T05:31:46;5.90;;;1.80;;
6412;SDS011;3239;48.714;9.472;2022-08-21T05:34:13;4.10;;;1.70;;
6412;SDS011;3239;48.714;9.472;2022-08-21T05:36:44;1.57;;;1.47;;
6412;SDS011;3239;48.714;9.472;2022-08-21T05:39:11;3.73;;;1.87;;
6412;SDS011;3239;48.714;9.472;2022-08-21T05:41:37;4.30;;;1.77;;
6412;SDS011;3239;48.714;9.472;2022-08-21T05:44:03;1.93;;;1.53;;
6412;SDS011;3239;48.714;9.472;2022-08-21T05:46:29;5.87;;;1.47;;
6412;SDS011;3239;48.714;9.472;2022-08-21T05:48:55;3.07;;;1.60;;
6412;SDS011;3239;48.714;9.472;2022-08-21T05:51:21;3.17;;;1.90;;
6412;SDS011;3239;48.714;9.472;2022-08-21T05:53:47;3.70;;;1.70;;
6412;SDS011;3239;48.714;9.472;2022-08-21T05:56:13;4.80;;;1.90;;
6412;SDS011;3239;48.714;9.472;2022-08-21T05:58:39;1.67;;;1.57;;
6412;SDS011;3239;48.714;9.472;2022-08-21T06:01:05;5.33;;;1.70;;
6412;SDS011;3239;48.714;9.472;2022-08-21T06:03:34;4.23;;;1.60;;
6412;SDS011;3239;48.714;9.472;2022-08-21T06:06:03;4.67;;;1.63;;
6412;SDS011;3239;48.714;9.472;2022-08-21T06:08:29;2.10;;;1.80;;
6412;SDS011;3239;48.714;9.472;2022-08-21T06:10:56;2.67;;;1.90;;
6412;SDS011;3239;48.714;9.472;2022-08-21T06:13:25;10.50;;;2.03;;
6412;SDS011;3239;48.714;9.472;2022-08-21T06:16:00;2.07;;;1.70;;
6412;SDS011;3239;48.714;9.472;2022-08-21T06:18:38;2.03;;;1.83;;
6412;SDS011;3239;48.714;9.472;2022-08-21T06:21:05;1.77;;;1.67;;
6412;SDS011;3239;48.714;9.472;2022-08-21T06:23:31;1.53;;;1.37;;
6412;SDS011;3239;48.714;9.472;2022-08-21T06:25:59;1.90;;;1.70;;
6412;SDS011;3239;48.714;9.472;2022-08-21T06:28:26;1.80;;;1.70;;
6412;SDS011;3239;48.714;9.472;2022-08-21T06:30:52;2.50;;;2.07;;
6412;SDS011;3239;48.714;9.472;2022-08-21T06:33:19;9.60;;;1.97;;
6412;SDS011;3239;48.714;9.472;2022-08-21T06:35:45;2.70;;;1.97;;
6412;SDS011;3239;48.714;9.472;2022-08-21T06:38:11;2.60;;;2.23;;
6412;SDS011;3239;48.714;9.472;2022-08-21T06:40:37;3.10;;;2.13;;
6412;SDS011;3239;48.714;9.472;2022-08-21T06:43:10;4.30;;;1.83;;
6412;SDS011;3239;48.714;9.472;2022-08-21T06:45:39;13.83;;;2.27;;
6412;SDS011;3239;48.714;9.472;2022-08-21T06:48:05;4.77;;;2.27;;
6412;SDS011;3239;48.714;9.472;2022-08-21T06:50:34;3.97;;;1.93;;
6412;SDS011;3239;48.714;9.472;2022-08-21T06:53:02;3.97;;;1.80;;
6412;SDS011;3239;48.714;9.472;2022-08-21T06:55:31;1.77;;;1.63;;
6412;SDS011;3239;48.714;9.472;2022-08-21T06:57:58;1.97;;;1.77;;
6412;SDS011;3239;48.714;9.472;2022-08-21T07:00:24;3.20;;;1.63;;
6412;SDS011;3239;48.714;9.472;2022-08-21T07:02:50;7.60;;;1.80;;
6412;SDS011;3239;48.714;9.472;2022-08-21T07:05:16;2.80;;;1.60;;
6412;SDS011;3239;48.714;9.472;2022-08-21T07:07:42;3.20;;;1.50;;
6412;SDS011;3239;48.714;9.472;2022-08-21T07:10:09;4.80;;;2.33;;
6412;SDS011;3239;48.714;9.472;2022-08-21T07:12:35;2.40;;;1.77;;
6412;SDS011;3239;48.714;9.472;2022-08-21T07:15:01;3.03;;;1.43;;
6412;SDS011;3239;48.714;9.472;2022-08-21T07:17:28;2.30;;;1.80;;
6412;SDS011;3239;48.714;9.472;2022-08-21T07:19:54;4.70;;;1.60;;
6412;SDS011;3239;48.714;9.472;2022-08-21T07:22:20;3.33;;;1.83;;
6412;SDS011;3239;48.714;9.472;2022-08-21T07:24:46;3.00;;;1.60;;
6412;SDS011;3239;48.714;9.472;2022-08-21T07:27:12;2.50;;;1.30;;
6412;SDS011;3239;48.714;9.472;2022-08-21T07:29:38;5.57;;;2.03;;
6412;SDS011;3239;48.714;9.472;2022-08-21T07:32:04;2.50;;;2.03;;
6412;SDS011;3239;48.714;9.472;2022-08-21T07:34:30;1.70;;;1.50;;
6412;SDS011;3239;48.714;9.472;2022-08-21T07:37:06;3.40;;;2.00;;
6412;SDS011;3239;48.714;9.472;2022-08-21T07:39:32;1.70;;;1.53;;
6412;SDS011;3239;48.714;9.472;2022-08-21T07:41:58;2.30;;;1.80;;
6412;SDS011;3239;48.714;9.472;2022-08-21T07:44:23;5.97;;;1.50;;
6412;SDS011;3239;48.714;9.472;2022-08-21T07:46:49;2.10;;;1.40;;
6412;SDS011;3239;48.714;9.472;2022-08-21T07:49:15;2.87;;;1.60;;
6412;SDS011;3239;48.714;9.472;2022-08-21T07:51:41;4.17;;;1.80;;
6412;SDS011;3239;48.714;9.472;2022-08-21T07:54:06;3.10;;;1.90;;
6412;SDS011;3239;48.714;9.472;2022-08-21T07:56:33;3.20;;;1.60;;
6412;SDS011;3239;48.714;9.472;2022-08-21T07:58:59;2.00;;;1.50;;
6412;SDS011;3239;48.714;9.472;2022-08-21T08:01:27;4.17;;;1.70;;
6412;SDS011;3239;48.714;9.472;2022-08-21T08:03:53;3.40;;;1.73;;
6412;SDS011;3239;48.714;9.472;2022-08-21T08:06:20;2.90;;;1.70;;
6412;SDS011;3239;48.714;9.472;2022-08-21T08:08:46;6.40;;;1.60;;
6412;SDS011;3239;48.714;9.472;2022-08-21T08:11:12;3.33;;;1.90;;
6412;SDS011;3239;48.714;9.472;2022-08-21T08:13:48;2.00;;;1.53;;
6412;SDS011;3239;48.714;9.472;2022-08-21T08:16:16;3.77;;;2.00;;
6412;SDS011;3239;48.714;9.472;2022-08-21T08:18:43;5.30;;;2.83;;
6412;SDS011;3239;48.714;9.472;2022-08-21T08:21:13;3.73;;;1.90;;
6412;SDS011;3239;48.714;9.472;2022-08-21T08:23:40;3.53;;;2.00;;
6412;SDS011;3239;48.714;9.472;2022-08-21T08:26:06;4.97;;;2.37;;
6412;SDS011;3239;48.714;9.472;2022-08-21T08:28:32;3.00;;;1.50;;
6412;SDS011;3239;48.714;9.472;2022-08-21T08:30:59;4.67;;;1.83;;
6412;SDS011;3239;48.714;9.472;2022-08-21T08:33:25;4.53;;;2.40;;
6412;SDS011;3239;48.714;9.472;2022-08-21T08:35:52;4.23;;;2.40;;
6412;SDS011;3239;48.714;9.472;2022-08-21T08:38:19;8.90;;;2.40;;
6412;SDS011;3239;48.714;9.472;2022-08-21T08:40:52;7.30;;;2.37;;
6412;SDS011;3239;48.714;9.472;2022-08-21T08:43:36;4.07;;;2.00;;
6412;SDS011;3239;48.714;9.472;2022-08-21T08:46:04;7.77;;;2.87;;
6412;SDS011;3239;48.714;9.472;2022-08-21T08:48:51;3.60;;;1.90;;
6412;SDS011;3239;48.714;9.472;2022-08-21T08:51:48;3.30;;;1.97;;
6412;SDS011;3239;48.714;9.472;2022-08-21T08:54:39;2.73;;;1.87;;
6412;SDS011;3239;48.714;9.472;2022-08-21T08:57:15;3.90;;;2.63;;
6412;SDS011;3239;48.714;9.472;2022-08-21T08:59:52;4.53;;;2.00;;
6412;SDS011;3239;48.714;9.472;2022-08-21T09:02:23;4.03;;;2.10;;
6412;SDS011;3239;48.714;9.472;2022-08-21T09:04:49;6.60;;;3.03;;
6412;SDS011;3239;48.714;9.472;2022-08-21T09:15:54;5.63;;;2.80;;
6412;SDS011;3239;48.714;9.472;2022-08-21T09:27:25;6.43;;;2.40;;
6412;SDS011;3239;48.714;9.472;2022-08-21T09:29:52;6.83;;;2.60;;
6412;SDS011;3239;48.714;9.472;2022-08-21T09:32:24;4.70;;;2.23;;
6412;SDS011;3239;48.714;9.472;2022-08-21T09:34:58;4.67;;;2.50;;
6412;SDS011;3239;48.714;9.472;2022-08-21T09:37:57;9.60;;;2.53;;
6412;SDS011;3239;48.714;9.472;2022-08-21T09:45:37;4.47;;;1.97;;
6412;SDS011;3239;48.714;9.472;2022-08-21T09:50:43;9.43;;;2.43;;
6412;SDS011;3239;48.714;9.472;2022-08-21T09:53:18;4.80;;;2.73;;
6412;SDS011;3239;48.714;9.472;2022-08-21T09:55:53;7.00;;;2.43;;
6412;SDS011;3239;48.714;9.472;2022-08-21T09:58:41;8.53;;;2.60;;
6412;SDS011;3239;48.714;9.472;2022-08-21T10:01:14;5.23;;;2.27;;
6412;SDS011;3239;48.714;9.472;2022-08-21T10:03:44;7.13;;;2.67;;
6412;SDS011;3239;48.714;9.472;2022-08-21T10:06:20;6.80;;;2.17;;
6412;SDS011;3239;48.714;9.472;2022-08-21T10:09:03;8.80;;;2.50;;
6412;SDS011;3239;48.714;9.472;2022-08-21T10:11:35;4.03;;;2.30;;
6412;SDS011;3239;48.714;9.472;2022-08-21T10:16:30;5.50;;;2.43;;
6412;SDS011;3239;48.714;9.472;2022-08-21T10:25:01;5.00;;;2.07;;
6412;SDS011;3239;48.714;9.472;2022-08-21T10:30:20;4.60;;;2.37;;
6412;SDS011;3239;48.714;9.472;2022-08-21T10:44:59;5.27;;;2.60;;
6412;SDS011;3239;48.714;9.472;2022-08-21T10:48:05;4.53;;;2.33;;
6412;SDS011;3239;48.714;9.472;2022-08-21T10:50:50;4.73;;;2.37;;
6412;SDS011;3239;48.714;9.472;2022-08-21T10:53:32;6.40;;;2.30;;
6412;SDS011;3239;48.714;9.472;2022-08-21T10:56:35;4.43;;;2.20;;
6412;SDS011;3239;48.714;9.472;2022-08-21T11:01:57;6.10;;;2.93;;
6412;SDS011;3239;48.714;9.472;2022-08-21T11:07:31;7.43;;;2.30;;
6412;SDS011;3239;48.714;9.472;2022-08-21T11:12:52;4.20;;;2.57;;
6412;SDS011;3239;48.714;9.472;2022-08-21T11:18:29;6.73;;;2.47;;
6412;SDS011;3239;48.714;9.472;2022-08-21T11:26:57;4.77;;;2.70;;
6412;SDS011;3239;48.714;9.472;2022-08-21T11:29:31;6.33;;;2.30;;
6412;SDS011;3239;48.714;9.472;2022-08-21T11:43:48;5.20;;;2.20;;
6412;SDS011;3239;48.714;9.472;2022-08-21T11:52:13;11.03;;;2.90;;
6412;SDS011;3239;48.714;9.472;2022-08-21T11:58:03;3.57;;;2.10;;
6412;SDS011;3239;48.714;9.472;2022-08-21T12:00:50;3.90;;;2.27;;
6412;SDS011;3239;48.714;9.472;2022-08-21T12:03:29;8.53;;;2.23;;
6412;SDS011;3239;48.714;9.472;2022-08-21T12:06:13;6.27;;;2.30;;
6412;SDS011;3239;48.714;9.472;2022-08-21T12:08:43;5.10;;;2.93;;
6412;SDS011;3239;48.714;9.472;2022-08-21T12:11:23;3.33;;;2.17;;
6412;SDS011;3239;48.714;9.472;2022-08-21T12:13:58;7.10;;;2.23;;
6412;SDS011;3239;48.714;9.472;2022-08-21T12:16:31;7.90;;;2.97;;
6412;SDS011;3239;48.714;9.472;2022-08-21T12:19:13;5.97;;;2.47;;
6412;SDS011;3239;48.714;9.472;2022-08-21T12:21:58;7.10;;;2.47;;
6412;SDS011;3239;48.714;9.472;2022-08-21T12:24:32;4.90;;;2.23;;
6412;SDS011;3239;48.714;9.472;2022-08-21T12:27:50;3.57;;;2.20;;
6412;SDS011;3239;48.714;9.472;2022-08-21T12:29:56;3.00;;;2.00;;
6412;SDS011;3239;48.714;9.472;2022-08-21T12:37:52;4.53;;;2.30;;
6412;SDS011;3239;48.714;9.472;2022-08-21T12:40:42;7.37;;;2.10;;
6412;SDS011;3239;48.714;9.472;2022-08-21T12:43:31;4.47;;;2.30;;
6412;SDS011;3239;48.714;9.472;2022-08-21T12:46:05;3.87;;;2.10;;
6412;SDS011;3239;48.714;9.472;2022-08-21T12:48:33;3.40;;;2.23;;
6412;SDS011;3239;48.714;9.472;2022-08-21T12:51:17;3.93;;;2.60;;
6412;SDS011;3239;48.714;9.472;2022-08-21T12:56:17;5.87;;;2.10;;
6412;SDS011;3239;48.714;9.472;2022-08-21T12:58:50;4.50;;;2.20;;
6412;SDS011;3239;48.714;9.472;2022-08-21T13:01:31;5.30;;;2.40;;
6412;SDS011;3239;48.714;9.472;2022-08-21T13:04:22;4.60;;;1.80;;
6412;SDS011;3239;48.714;9.472;2022-08-21T13:07:10;3.57;;;2.07;;
6412;SDS011;3239;48.714;9.472;2022-08-21T13:09:46;5.50;;;1.90;;
6412;SDS011;3239;48.714;9.472;2022-08-21T13:12:26;3.40;;;1.77;;
6412;SDS011;3239;48.714;9.472;2022-08-21T13:14:55;7.80;;;1.80;;
6412;SDS011;3239;48.714;9.472;2022-08-21T13:17:25;2.90;;;1.60;;
6412;SDS011;3239;48.714;9.472;2022-08-21T13:22:25;2.63;;;1.60;;
6412;SDS011;3239;48.714;9.472;2022-08-21T13:24:53;2.87;;;1.90;;
6412;SDS011;3239;48.714;9.472;2022-08-21T13:29:49;4.10;;;1.80;;
6412;SDS011;3239;48.714;9.472;2022-08-21T13:32:33;2.00;;;1.53;;
6412;SDS011;3239;48.714;9.472;2022-08-21T13:35:46;6.10;;;1.80;;
6412;SDS011;3239;48.714;9.472;2022-08-21T13:38:10;3.70;;;1.53;;
6412;SDS011;3239;48.714;9.472;2022-08-21T13:40:49;3.30;;;1.97;;
6412;SDS011;3239;48.714;9.472;2022-08-21T13:43:21;3.13;;;1.80;;
6412;SDS011;3239;48.714;9.472;2022-08-21T13:45:53;5.53;;;1.90;;
6412;SDS011;3239;48.714;9.472;2022-08-21T13:48:21;4.40;;;2.10;;
6412;SDS011;3239;48.714;9.472;2022-08-21T13:50:51;3.43;;;1.60;;
6412;SDS011;3239;48.714;9.472;2022-08-21T13:53:22;4.33;;;1.90;;
6412;SDS011;3239;48.714;9.472;2022-08-21T13:55:56;3.60;;;1.90;;
6412;SDS011;3239;48.714;9.472;2022-08-21T13:58:27;3.17;;;1.90;;
6412;SDS011;3239;48.714;9.472;2022-08-21T14:00:58;4.47;;;1.87;;
6412;SDS011;3239;48.714;9.472;2022-08-21T14:03:36;4.33;;;1.83;;
6412;SDS011;3239;48.714;9.472;2022-08-21T14:06:18;3.27;;;1.90;;
6412;SDS011;3239;48.714;9.472;2022-08-21T14:08:58;2.27;;;1.47;;
6412;SDS011;3239;48.714;9.472;2022-08-21T14:11:33;3.53;;;1.53;;
6412;SDS011;3239;48.714;9.472;2022-08-21T14:14:02;3.17;;;1.80;;
6412;SDS011;3239;48.714;9.472;2022-08-21T14:16:46;2.60;;;1.70;;
6412;SDS011;3239;48.714;9.472;2022-08-21T14:19:21;3.83;;;1.80;;
6412;SDS011;3239;48.714;9.472;2022-08-21T14:25:12;5.33;;;1.80;;
6412;SDS011;3239;48.714;9.472;2022-08-21T14:27:48;3.50;;;1.80;;
6412;SDS011;3239;48.714;9.472;2022-08-21T14:33:01;1.80;;;1.30;;
6412;SDS011;3239;48.714;9.472;2022-08-21T14:35:29;3.73;;;1.50;;
6412;SDS011;3239;48.714;9.472;2022-08-21T14:37:55;2.07;;;1.20;;
6412;SDS011;3239;48.714;9.472;2022-08-21T14:40:23;2.87;;;1.50;;
6412;SDS011;3239;48.714;9.472;2022-08-21T14:42:50;4.37;;;1.80;;
6412;SDS011;3239;48.714;9.472;2022-08-21T14:45:18;4.23;;;1.80;;
6412;SDS011;3239;48.714;9.472;2022-08-21T14:47:55;4.73;;;1.80;;
6412;SDS011;3239;48.714;9.472;2022-08-21T14:50:23;2.73;;;1.33;;
6412;SDS011;3239;48.714;9.472;2022-08-21T14:52:49;2.70;;;1.50;;
6412;SDS011;3239;48.714;9.472;2022-08-21T14:55:16;3.73;;;1.80;;
6412;SDS011;3239;48.714;9.472;2022-08-21T14:57:47;1.57;;;1.33;;
6412;SDS011;3239;48.714;9.472;2022-08-21T15:00:18;3.20;;;1.53;;
6412;SDS011;3239;48.714;9.472;2022-08-21T15:02:50;3.87;;;1.10;;
6412;SDS011;3239;48.714;9.472;2022-08-21T15:05:17;2.53;;;1.33;;
6412;SDS011;3239;48.714;9.472;2022-08-21T15:07:44;2.00;;;1.50;;
6412;SDS011;3239;48.714;9.472;2022-08-21T15:10:10;2.60;;;1.40;;
6412;SDS011;3239;48.714;9.472;2022-08-21T15:12:37;4.83;;;1.47;;
6412;SDS011;3239;48.714;9.472;2022-08-21T15:15:04;2.00;;;1.50;;
6412;SDS011;3239;48.714;9.472;2022-08-21T15:17:31;2.63;;;1.50;;
6412;SDS011;3239;48.714;9.472;2022-08-21T15:19:57;3.53;;;1.60;;
6412;SDS011;3239;48.714;9.472;2022-08-21T15:22:23;2.50;;;1.30;;
6412;SDS011;3239;48.714;9.472;2022-08-21T15:24:49;2.50;;;1.70;;
6412;SDS011;3239;48.714;9.472;2022-08-21T15:27:15;5.00;;;1.80;;
6412;SDS011;3239;48.714;9.472;2022-08-21T15:29:43;2.17;;;1.40;;
6412;SDS011;3239;48.714;9.472;2022-08-21T15:34:51;3.50;;;1.60;;
6412;SDS011;3239;48.714;9.472;2022-08-21T15:37:18;4.53;;;1.97;;
6412;SDS011;3239;48.714;9.472;2022-08-21T15:39:45;2.53;;;1.57;;
6412;SDS011;3239;48.714;9.472;2022-08-21T15:42:11;2.47;;;1.70;;
6412;SDS011;3239;48.714;9.472;2022-08-21T15:44:41;2.60;;;1.60;;
6412;SDS011;3239;48.714;9.472;2022-08-21T15:47:12;2.80;;;1.53;;
6412;SDS011;3239;48.714;9.472;2022-08-21T15:49:42;3.40;;;1.57;;
6412;SDS011;3239;48.714;9.472;2022-08-21T15:52:10;3.07;;;2.07;;
6412;SDS011;3239;48.714;9.472;2022-08-21T15:54:38;3.33;;;1.40;;
6412;SDS011;3239;48.714;9.472;2022-08-21T15:57:04;3.03;;;1.67;;
6412;SDS011;3239;48.714;9.472;2022-08-21T15:59:31;3.63;;;1.77;;
6412;SDS011;3239;48.714;9.472;2022-08-21T16:02:08;3.23;;;1.77;;
6412;SDS011;3239;48.714;9.472;2022-08-21T16:04:41;3.23;;;1.30;;
6412;SDS011;3239;48.714;9.472;2022-08-21T16:07:07;2.53;;;2.03;;
6412;SDS011;3239;48.714;9.472;2022-08-21T16:09:33;2.63;;;1.50;;
6412;SDS011;3239;48.714;9.472;2022-08-21T16:11:59;3.40;;;1.47;;
6412;SDS011;3239;48.714;9.472;2022-08-21T16:14:26;1.93;;;1.23;;
6412;SDS011;3239;48.714;9.472;2022-08-21T16:16:55;10.77;;;1.77;;
6412;SDS011;3239;48.714;9.472;2022-08-21T16:19:21;3.00;;;1.77;;
6412;SDS011;3239;48.714;9.472;2022-08-21T16:21:47;3.30;;;1.80;;
6412;SDS011;3239;48.714;9.472;2022-08-21T16:24:13;2.20;;;2.00;;
6412;SDS011;3239;48.714;9.472;2022-08-21T16:26:39;4.73;;;1.90;;
6412;SDS011;3239;48.714;9.472;2022-08-21T16:29:05;4.07;;;2.07;;
6412;SDS011;3239;48.714;9.472;2022-08-21T16:31:32;6.63;;;1.47;;
6412;SDS011;3239;48.714;9.472;2022-08-21T16:33:59;3.30;;;1.70;;
6412;SDS011;3239;48.714;9.472;2022-08-21T16:36:25;2.20;;;1.47;;
6412;SDS011;3239;48.714;9.472;2022-08-21T16:38:52;2.53;;;1.30;;
6412;SDS011;3239;48.714;9.472;2022-08-21T16:41:21;3.10;;;1.30;;
6412;SDS011;3239;48.714;9.472;2022-08-21T16:43:50;3.93;;;1.93;;
6412;SDS011;3239;48.714;9.472;2022-08-21T16:46:16;2.90;;;1.37;;
6412;SDS011;3239;48.714;9.472;2022-08-21T16:48:44;2.90;;;1.50;;
6412;SDS011;3239;48.714;9.472;2022-08-21T16:51:11;2.40;;;1.47;;
6412;SDS011;3239;48.714;9.472;2022-08-21T16:53:39;2.80;;;1.40;;
6412;SDS011;3239;48.714;9.472;2022-08-21T16:56:05;2.17;;;1.30;;
6412;SDS011;3239;48.714;9.472;2022-08-21T16:58:34;3.13;;;2.40;;
6412;SDS011;3239;48.714;9.472;2022-08-21T17:01:07;3.30;;;1.93;;
6412;SDS011;3239;48.714;9.472;2022-08-21T17:03:38;2.90;;;1.77;;
6412;SDS011;3239;48.714;9.472;2022-08-21T17:06:07;1.93;;;1.47;;
6412;SDS011;3239;48.714;9.472;2022-08-21T17:08:34;2.27;;;1.43;;
6412;SDS011;3239;48.714;9.472;2022-08-21T17:11:00;4.43;;;1.53;;
6412;SDS011;3239;48.714;9.472;2022-08-21T17:13:27;3.57;;;1.40;;
6412;SDS011;3239;48.714;9.472;2022-08-21T17:15:54;1.93;;;1.53;;
6412;SDS011;3239;48.714;9.472;2022-08-21T17:18:21;2.97;;;1.53;;
6412;SDS011;3239;48.714;9.472;2022-08-21T17:20:48;3.10;;;1.27;;
6412;SDS011;3239;48.714;9.472;2022-08-21T17:23:15;2.53;;;1.60;;